Time;durP1;ratioP1;P1;durP2;ratioP2;P2;SDS_P1;SDS_P2;PMS_P1;PMS_P2;Temp;Humidity;BMP_temperature;BMP_pressure;BME280_temperature;BME280_humidity;BME280_pressure;Samples;Min_cycle;Max_cycle;Signal;HPM_P1;HPM_P2
2021/03/12 00:00:32;;;;;;;5.18;4.65;;;;;;;5.74;40.31;99491.50;4986562;28;100146;-73
2021/03/12 00:03:10;;;;;;;6.10;5.40;;;;;;;5.75;40.72;99501.19;5021205;27;97174;-73
2021/03/12 00:05:41;;;;;;;6.85;6.18;;;;;;;5.70;40.75;99484.38;5011082;28;96999;-73
2021/03/12 00:08:08;;;;;;;6.30;5.80;;;;;;;5.72;40.46;99509.06;5005232;28;99835;-73
2021/03/12 00:10:35;;;;;;;10.15;6.93;;;;;;;5.72;40.60;99544.22;4988305;28;100568;-71
2021/03/12 00:13:03;;;;;;;6.82;6.15;;;;;;;5.65;40.84;99523.00;5007314;28;96819;-71
2021/03/12 00:15:30;;;;;;;7.40;6.70;;;;;;;5.64;40.60;99506.25;5007896;28;96566;-72
2021/03/12 00:17:58;;;;;;;6.35;5.90;;;;;;;5.58;40.86;99508.75;4987948;28;98457;-72
2021/03/12 00:20:29;;;;;;;6.90;6.40;;;;;;;5.56;41.00;99499.03;5021969;27;100117;-72
2021/03/12 00:22:56;;;;;;;6.35;5.85;;;;;;;5.52;40.95;99513.91;5007174;28;96898;-71
2021/03/12 00:25:25;;;;;;;6.40;5.78;;;;;;;5.45;41.22;99493.53;5007757;28;96909;-72
2021/03/12 00:27:52;;;;;;;5.78;5.22;;;;;;;5.39;40.99;99508.34;5005694;28;98598;-72
2021/03/12 00:30:21;;;;;;;5.93;5.32;;;;;;;5.38;41.04;99502.19;4990270;28;98845;-71
2021/03/12 00:32:48;;;;;;;5.78;5.38;;;;;;;5.36;41.18;99505.66;4988824;28;96992;-72
2021/03/12 00:35:15;;;;;;;5.10;4.68;;;;;;;5.27;41.32;99519.50;5008083;28;97359;-72
2021/03/12 00:37:42;;;;;;;5.38;4.38;;;;;;;5.23;41.42;99541.38;4988953;28;99858;-71
2021/03/12 00:40:12;;;;;;;4.13;3.80;;;;;;;5.15;41.52;99533.34;4988393;28;98750;-72
2021/03/12 00:42:39;;;;;;;4.63;4.22;;;;;;;5.11;41.50;99530.56;5008542;28;97158;-71
2021/03/12 00:45:08;;;;;;;4.47;3.90;;;;;;;5.07;41.24;99542.81;5006860;28;97363;-71
2021/03/12 00:47:36;;;;;;;4.30;3.90;;;;;;;5.04;41.62;99560.28;5035710;27;99999;-72
2021/03/12 00:50:04;;;;;;;4.38;3.97;;;;;;;5.02;41.69;99572.50;5039436;27;98073;-72
2021/03/12 00:52:31;;;;;;;4.45;4.15;;;;;;;5.00;42.17;99609.38;4989673;28;97295;-72
2021/03/12 00:54:59;;;;;;;3.50;3.20;;;;;;;5.01;42.06;99610.28;4988344;28;97061;-71
2021/03/12 00:57:40;;;;;;;3.00;2.80;;;;;;;4.93;42.00;99606.56;5038689;27;97475;-72
2021/03/12 01:00:08;;;;;;;2.88;2.80;;;;;;;4.88;41.96;99608.19;4989873;28;97171;-72
2021/03/12 01:02:39;;;;;;;3.17;2.88;;;;;;;4.84;41.67;99599.31;4990832;28;96770;-71
2021/03/12 01:05:08;;;;;;;3.30;3.10;;;;;;;4.78;41.60;99608.78;4987969;28;97238;-71
2021/03/12 01:07:36;;;;;;;3.65;3.10;;;;;;;4.75;41.67;99601.72;5040757;27;97695;-71
2021/03/12 01:10:05;;;;;;;3.33;3.13;;;;;;;4.73;41.85;99603.44;5006985;28;99284;-71
2021/03/12 01:12:35;;;;;;;2.92;2.70;;;;;;;4.67;41.82;99603.25;4988695;28;97137;-71
2021/03/12 01:15:05;;;;;;;2.95;2.85;;;;;;;4.67;41.65;99594.47;5007364;28;97445;-72
2021/03/12 01:17:31;;;;;;;2.60;2.60;;;;;;;4.64;41.71;99597.03;5005720;28;98411;-72
2021/03/12 01:20:04;;;;;;;4.22;3.10;;;;;;;4.62;41.52;99609.25;5004870;28;100263;-72
2021/03/12 01:22:32;;;;;;;2.95;2.85;;;;;;;4.67;41.37;99612.91;4990295;28;97531;-72
2021/03/12 01:25:00;;;;;;;2.92;2.83;;;;;;;4.63;41.38;99606.66;5004259;28;96892;-72
2021/03/12 01:27:38;;;;;;;3.00;2.88;;;;;;;4.63;41.63;99616.28;5004556;28;96819;-72
2021/03/12 01:30:11;;;;;;;3.03;2.80;;;;;;;4.62;41.51;99610.16;4990120;28;98292;-72
2021/03/12 01:32:38;;;;;;;2.55;2.45;;;;;;;4.64;41.58;99615.47;5023182;28;97119;-72
2021/03/12 01:35:10;;;;;;;3.53;2.92;;;;;;;4.68;41.61;99622.59;4988229;28;96850;-72
2021/03/12 01:37:37;;;;;;;3.10;2.90;;;;;;;4.70;41.38;99616.50;5005603;28;96784;-72
2021/03/12 01:40:06;;;;;;;3.40;3.00;;;;;;;4.74;41.28;99605.19;5006449;28;98216;-72
2021/03/12 01:42:50;;;;;;;3.38;2.70;;;;;;;4.79;41.36;99621.13;5001132;28;97560;-72
2021/03/12 01:45:20;;;;;;;3.13;2.92;;;;;;;4.80;41.42;99607.09;5020332;27;97092;-72
2021/03/12 01:47:48;;;;;;;7.18;3.17;;;;;;;4.83;41.28;99612.44;4986780;28;98961;-72
2021/03/12 01:50:18;;;;;;;3.65;3.45;;;;;;;4.82;41.31;99608.03;5005680;28;98393;-72
2021/03/12 01:52:45;;;;;;;3.90;3.10;;;;;;;4.84;41.39;99607.22;5003450;28;97095;-72
2021/03/12 01:55:16;;;;;;;3.30;3.20;;;;;;;4.86;41.40;99597.63;5007462;28;97987;-72
2021/03/12 01:57:44;;;;;;;3.63;3.30;;;;;;;4.90;41.04;99596.81;4988994;28;99408;-71
2021/03/12 02:00:20;;;;;;;3.25;3.15;;;;;;;4.88;41.45;99600.28;4989068;28;101329;-71
2021/03/12 02:02:49;;;;;;;3.10;3.00;;;;;;;4.89;41.24;99609.97;5010013;28;96907;-72
2021/03/12 02:05:39;;;;;;;3.50;3.30;;;;;;;4.88;41.20;99621.38;5008766;28;96953;-71
2021/03/12 02:08:07;;;;;;;3.50;3.20;;;;;;;4.85;41.48;99632.72;4992154;28;96810;-71
2021/03/12 02:10:41;;;;;;;3.00;2.90;;;;;;;4.85;41.62;99639.72;5008285;28;96969;-71
2021/03/12 02:13:22;;;;;;;4.38;3.08;;;;;;;4.85;41.85;99639.72;5008990;28;97300;-71
2021/03/12 02:15:53;;;;;;;4.05;3.03;;;;;;;4.87;41.40;99638.00;5022576;27;97066;-72
2021/03/12 02:18:23;;;;;;;3.22;3.13;;;;;;;4.86;41.48;99636.25;4989852;28;99208;-71
2021/03/12 02:20:57;;;;;;;3.63;3.42;;;;;;;4.89;41.24;99646.84;4990141;28;98893;-71
2021/03/12 02:24:04;;;;;;;3.50;3.30;;;;;;;4.84;43.11;99654.66;4993041;28;97431;-72
2021/03/12 02:26:39;;;;;;;3.80;3.50;;;;;;;4.81;41.55;99659.84;4930513;28;98106;-72
2021/03/12 02:29:09;;;;;;;3.65;3.45;;;;;;;4.79;41.67;99655.41;4942204;28;97128;-72
2021/03/12 02:31:40;;;;;;;2.80;2.60;;;;;;;4.78;41.56;99651.84;4958780;28;100588;-72
2021/03/12 02:34:10;;;;;;;3.00;2.90;;;;;;;4.71;41.79;99649.03;4992247;28;97512;-71
2021/03/12 02:36:58;;;;;;;3.08;2.97;;;;;;;4.66;42.05;99654.19;5007459;28;97330;-72
2021/03/12 02:39:27;;;;;;;3.80;3.50;;;;;;;4.61;41.63;99654.91;4992520;28;97653;-72
2021/03/12 02:42:00;;;;;;;4.03;3.72;;;;;;;4.57;42.19;99645.13;4991645;28;99849;-72
2021/03/12 02:44:34;;;;;;;6.82;3.80;;;;;;;4.53;41.91;99645.91;5007511;28;96876;-72
2021/03/12 02:47:09;;;;;;;4.35;4.15;;;;;;;4.44;42.08;99646.56;5039967;27;96767;-72
2021/03/12 02:49:37;;;;;;;4.70;4.35;;;;;;;4.42;42.16;99655.25;5009426;28;98961;-72
2021/03/12 02:52:06;;;;;;;4.80;4.50;;;;;;;4.37;42.22;99654.22;4991151;28;99310;-72
2021/03/12 02:54:34;;;;;;;7.63;4.10;;;;;;;4.36;42.34;99657.69;4991214;28;97215;-72
2021/03/12 02:57:02;;;;;;;6.05;3.88;;;;;;;4.36;42.26;99647.16;4990242;28;96931;-72
2021/03/12 02:59:29;;;;;;;4.63;4.20;;;;;;;4.39;42.37;99644.63;4992890;28;97153;-72
2021/03/12 03:02:10;;;;;;;4.20;3.90;;;;;;;4.36;42.55;99658.59;5016054;27;99899;-72
2021/03/12 03:05:06;;;;;;;7.55;4.68;;;;;;;4.42;42.56;99671.94;5011300;27;96817;-72
2021/03/12 03:07:39;;;;;;;5.60;4.50;;;;;;;4.46;42.53;99691.38;4991478;28;96998;-72
2021/03/12 03:10:09;;;;;;;7.15;4.75;;;;;;;4.41;43.35;99709.66;5018760;28;97758;-73
2021/03/12 03:12:37;;;;;;;5.05;4.70;;;;;;;4.44;42.26;99736.09;5024837;27;97638;-72
2021/03/12 03:15:06;;;;;;;5.78;5.30;;;;;;;4.44;43.19;99738.72;5005733;28;97103;-72
2021/03/12 03:17:37;;;;;;;5.15;4.18;;;;;;;4.27;44.84;99773.28;4991324;28;96826;-71
2021/03/12 03:20:10;;;;;;;3.80;3.60;;;;;;;4.02;43.78;99754.13;4990125;28;97056;-72
2021/03/12 03:22:45;;;;;;;3.67;3.47;;;;;;;3.82;43.74;99746.47;5020085;27;98048;-72
2021/03/12 03:25:14;;;;;;;3.60;3.30;;;;;;;3.68;43.67;99751.28;4989873;28;97399;-72
2021/03/12 03:27:41;;;;;;;3.70;3.58;;;;;;;3.53;43.84;99742.84;4989225;28;98179;-72
2021/03/12 03:30:11;;;;;;;3.58;3.30;;;;;;;3.49;43.75;99745.34;4988363;28;98496;-72
2021/03/12 03:32:40;;;;;;;3.70;3.50;;;;;;;3.45;43.95;99743.47;4990930;28;98700;-72
2021/03/12 03:35:09;;;;;;;3.95;3.63;;;;;;;3.39;44.62;99725.75;4988416;28;97434;-72
2021/03/12 03:37:37;;;;;;;4.22;3.95;;;;;;;3.34;43.91;99732.59;5004987;28;97227;-71
2021/03/12 03:40:06;;;;;;;4.43;4.13;;;;;;;3.29;44.49;99749.97;5001714;28;99512;-71
2021/03/12 03:42:34;;;;;;;4.38;3.97;;;;;;;3.25;44.17;99745.44;5005572;28;97297;-73
2021/03/12 03:45:06;;;;;;;3.80;3.60;;;;;;;3.27;44.26;99742.84;5018687;27;96907;-71
2021/03/12 03:47:34;;;;;;;3.92;3.63;;;;;;;3.24;44.22;99738.38;5003957;28;96936;-73
2021/03/12 03:50:03;;;;;;;4.22;4.00;;;;;;;3.24;44.03;99748.88;5006726;28;97783;-72
2021/03/12 03:52:31;;;;;;;4.53;4.20;;;;;;;3.28;43.92;99749.91;5014909;28;97684;-74
2021/03/12 03:55:07;;;;;;;3.80;3.42;;;;;;;3.29;43.99;99746.44;5008634;28;97248;-71
2021/03/12 03:57:36;;;;;;;3.90;3.70;;;;;;;3.24;43.82;99759.41;5024513;27;97317;-72
2021/03/12 04:00:06;;;;;;;4.20;3.95;;;;;;;3.21;43.34;99773.34;4990688;28;96878;-70
2021/03/12 04:02:43;;;;;;;4.15;3.88;;;;;;;3.21;43.54;99790.84;5007460;28;97872;-71
2021/03/12 04:05:15;;;;;;;4.80;4.43;;;;;;;3.17;43.54;99789.84;5010621;28;97602;-71
2021/03/12 04:07:50;;;;;;;4.40;4.15;;;;;;;3.20;43.26;99789.06;4993048;28;97411;-73
2021/03/12 04:10:19;;;;;;;4.15;3.85;;;;;;;3.22;43.67;99795.28;5004480;28;98904;-71
2021/03/12 04:12:47;;;;;;;4.55;4.15;;;;;;;3.20;43.55;99802.22;4990711;28;99942;-72
2021/03/12 04:15:17;;;;;;;4.95;4.53;;;;;;;3.20;43.06;99800.47;5009193;28;96886;-71
2021/03/12 04:17:46;;;;;;;5.05;4.75;;;;;;;3.20;43.19;99800.47;4985552;28;96687;-71
2021/03/12 04:20:15;;;;;;;5.07;4.50;;;;;;;3.23;43.73;99799.69;4989613;28;98036;-72
2021/03/12 04:22:43;;;;;;;5.43;4.95;;;;;;;3.24;43.49;99807.63;4990766;28;96885;-71
2021/03/12 04:25:11;;;;;;;5.85;5.43;;;;;;;3.23;43.87;99799.69;4987710;28;96770;-72
2021/03/12 04:27:39;;;;;;;5.65;5.25;;;;;;;3.22;43.88;99801.41;4990671;28;97403;-72
2021/03/12 04:30:08;;;;;;;5.88;5.43;;;;;;;3.20;44.16;99797.84;5003996;28;97776;-72
2021/03/12 04:32:36;;;;;;;5.97;4.82;;;;;;;3.23;43.71;99812.81;5007670;28;98578;-72
2021/03/12 04:35:05;;;;;;;4.85;4.55;;;;;;;3.23;43.79;99804.94;4991584;28;96963;-72
2021/03/12 04:37:33;;;;;;;5.80;4.47;;;;;;;3.20;43.79;99818.00;4988762;28;96913;-72
2021/03/12 04:40:01;;;;;;;4.57;4.28;;;;;;;3.16;43.48;99819.63;4992732;28;96862;-72
2021/03/12 04:42:30;;;;;;;4.10;3.80;;;;;;;3.18;44.05;99814.41;5017561;27;98120;-71
2021/03/12 04:45:07;;;;;;;5.57;4.75;;;;;;;3.17;44.16;99820.50;5011005;28;97445;-72
2021/03/12 04:47:39;;;;;;;4.43;4.13;;;;;;;3.12;44.27;99809.81;5024908;27;97155;-72
2021/03/12 04:50:09;;;;;;;4.90;4.50;;;;;;;3.12;44.41;99822.06;4989420;28;98551;-72
2021/03/12 04:52:39;;;;;;;5.35;4.95;;;;;;;3.11;43.68;99826.41;5021963;27;98558;-72
2021/03/12 04:55:08;;;;;;;5.88;5.57;;;;;;;3.11;44.10;99831.69;4986721;28;96946;-72
2021/03/12 04:57:36;;;;;;;5.10;4.80;;;;;;;3.10;43.88;99844.78;4983355;28;96955;-72
2021/03/12 05:00:07;;;;;;;5.88;5.32;;;;;;;3.09;43.79;99843.00;4986075;28;99287;-72
2021/03/12 05:02:41;;;;;;;7.47;5.25;;;;;;;3.04;44.41;99855.06;5018067;27;98725;-73
2021/03/12 05:05:10;;;;;;;5.57;5.18;;;;;;;3.02;44.24;99841.00;5002529;28;97629;-73
2021/03/12 05:07:40;;;;;;;5.22;4.93;;;;;;;3.01;44.01;99842.72;5015267;27;96919;-73
2021/03/12 05:10:16;;;;;;;6.95;5.28;;;;;;;3.01;43.76;99833.94;5017806;27;98671;-72
2021/03/12 05:12:43;;;;;;;5.32;4.85;;;;;;;2.98;43.93;99844.34;4986467;28;97001;-73
2021/03/12 05:15:28;;;;;;;6.78;4.85;;;;;;;2.94;44.08;99842.44;4994595;28;97009;-73
2021/03/12 05:17:55;;;;;;;5.97;5.47;;;;;;;2.95;43.76;99855.63;5003487;28;98369;-73
2021/03/12 05:20:24;;;;;;;5.38;4.95;;;;;;;2.98;44.13;99860.97;4979523;28;99694;-73
2021/03/12 05:22:52;;;;;;;6.35;5.85;;;;;;;2.93;44.13;99859.91;5004352;28;97315;-73
2021/03/12 05:25:19;;;;;;;5.40;4.90;;;;;;;2.94;44.55;99863.44;4986361;28;96906;-73
2021/03/12 05:27:46;;;;;;;6.55;6.00;;;;;;;3.00;43.82;99856.69;5011974;27;96701;-72
2021/03/12 05:30:14;;;;;;;5.07;4.65;;;;;;;3.02;44.45;99862.00;4986510;28;98494;-73
2021/03/12 05:32:41;;;;;;;5.70;5.30;;;;;;;3.03;43.72;99872.56;5040110;27;98913;-73
2021/03/12 05:35:12;;;;;;;6.80;6.20;;;;;;;3.03;44.13;99874.31;5045443;27;98150;-73
2021/03/12 05:37:39;;;;;;;6.30;5.78;;;;;;;3.09;43.67;99885.91;5005756;28;97168;-73
2021/03/12 05:40:09;;;;;;;7.07;6.13;;;;;;;3.13;43.51;99898.34;4989008;28;100805;-72
2021/03/12 05:42:42;;;;;;;8.60;5.53;;;;;;;3.15;44.23;99899.28;5022301;27;98680;-75
2021/03/12 05:45:11;;;;;;;8.13;6.05;;;;;;;3.14;44.34;99904.50;5017319;27;96887;-73
2021/03/12 05:47:48;;;;;;;6.28;5.78;;;;;;;3.21;43.53;99909.13;5020949;27;97140;-74
2021/03/12 05:50:34;;;;;;;6.28;5.88;;;;;;;3.23;43.68;99907.47;5004669;28;98340;-75
2021/03/12 05:53:02;;;;;;;5.53;5.07;;;;;;;3.26;43.50;99901.44;4987066;28;98970;-74
2021/03/12 05:55:32;;;;;;;7.35;5.80;;;;;;;3.28;43.74;99919.03;4988790;28;96845;-72
2021/03/12 05:58:00;;;;;;;7.95;5.90;;;;;;;3.27;43.59;99919.88;5019859;27;96898;-74
2021/03/12 06:00:28;;;;;;;5.72;5.22;;;;;;;3.32;44.31;99914.78;5038081;27;99018;-72
2021/03/12 06:02:58;;;;;;;7.28;6.22;;;;;;;3.32;44.07;99917.41;5038709;27;98459;-72
2021/03/12 06:05:48;;;;;;;8.27;5.90;;;;;;;3.36;44.20;99927.19;5004087;28;96880;-74
2021/03/12 06:08:17;;;;;;;7.53;5.75;;;;;;;3.36;43.84;99933.38;4980130;28;96962;-74
2021/03/12 06:10:46;;;;;;;7.00;6.35;;;;;;;3.35;43.69;99931.56;4987876;28;98713;-75
2021/03/12 06:13:19;;;;;;;8.60;6.30;;;;;;;3.38;43.60;99928.16;5018385;27;99992;-73
2021/03/12 06:15:49;;;;;;;8.30;6.55;;;;;;;3.38;43.79;99939.56;5013394;27;96859;-74
2021/03/12 06:18:25;;;;;;;7.20;6.50;;;;;;;3.42;44.06;99933.59;5021067;28;96862;-74
2021/03/12 06:21:26;;;;;;;7.15;6.43;;;;;;;3.50;45.13;99942.63;5012115;28;97067;-72
2021/03/12 06:23:55;;;;;;;7.97;6.10;;;;;;;3.52;43.62;99946.22;4994436;28;100192;-74
2021/03/12 06:26:46;;;;;;;6.80;6.28;;;;;;;3.55;44.02;99954.19;5002644;28;97392;-75
2021/03/12 06:29:31;;;;;;;7.30;6.70;;;;;;;3.58;44.49;99956.06;5004415;28;97355;-73
2021/03/12 06:32:17;;;;;;;7.25;6.55;;;;;;;3.57;43.83;99949.91;4991662;28;98182;-74
2021/03/12 06:35:05;;;;;;;7.00;6.40;;;;;;;3.56;43.83;99953.38;5035032;27;97596;-72
2021/03/12 06:37:52;;;;;;;8.25;6.65;;;;;;;3.54;44.07;99983.09;5002930;28;97352;-72
2021/03/12 06:40:29;;;;;;;9.23;7.35;;;;;;;3.51;43.96;99965.47;5014952;27;96901;-73
2021/03/12 06:43:18;;;;;;;9.77;7.60;;;;;;;3.55;44.14;99985.75;5000266;28;98448;-73
2021/03/12 06:46:00;;;;;;;9.52;7.57;;;;;;;3.59;44.47;99985.03;5034844;27;97962;-72
2021/03/12 06:49:00;;;;;;;6.88;6.28;;;;;;;3.65;44.05;99990.56;4998055;27;96835;-73
2021/03/12 06:51:34;;;;;;;7.32;6.68;;;;;;;3.74;43.44;100006.69;4985626;28;97353;-73
2021/03/12 06:54:07;;;;;;;6.70;6.03;;;;;;;3.71;43.51;100000.41;5014381;27;100148;-73
2021/03/12 06:56:49;;;;;;;7.70;6.93;;;;;;;3.73;44.14;100027.69;5015233;27;97798;-72
2021/03/12 06:59:27;;;;;;;6.75;6.10;;;;;;;3.70;44.46;100017.94;4978518;28;97441;-73
2021/03/12 07:02:00;;;;;;;6.55;6.03;;;;;;;3.64;44.24;100028.19;5028526;27;97329;-74
2021/03/12 07:04:31;;;;;;;5.97;5.30;;;;;;;3.59;43.73;100034.13;4993175;28;98645;-72
2021/03/12 07:07:32;;;;;;;6.55;6.03;;;;;;;3.55;45.72;100033.09;5013791;27;98711;-73
2021/03/12 07:10:04;;;;;;;6.65;5.95;;;;;;;3.58;43.94;100053.38;5019136;27;96863;-74
2021/03/12 07:12:45;;;;;;;6.22;5.80;;;;;;;3.58;44.79;100035.88;4965316;28;97407;-74
2021/03/12 07:15:18;;;;;;;7.47;6.85;;;;;;;3.62;44.03;100036.88;4988654;28;97809;-75
2021/03/12 07:18:06;;;;;;;7.25;6.55;;;;;;;3.66;43.87;100037.06;4991833;28;97970;-74
2021/03/12 07:20:36;;;;;;;7.50;5.68;;;;;;;3.68;43.63;100038.03;5017599;27;97347;-73
2021/03/12 07:23:08;;;;;;;6.03;5.55;;;;;;;3.69;43.96;100042.47;5001997;28;96967;-74
2021/03/12 07:25:42;;;;;;;5.97;5.47;;;;;;;3.68;43.67;100040.66;5035052;27;97418;-73
2021/03/12 07:28:13;;;;;;;6.47;5.95;;;;;;;3.71;44.21;100075.00;5000113;28;96993;-74
2021/03/12 07:30:54;;;;;;;6.57;5.97;;;;;;;3.72;44.78;100066.25;4978994;28;97016;-74
2021/03/12 07:33:26;;;;;;;6.80;6.22;;;;;;;3.77;44.02;100053.28;5019932;27;97072;-73
2021/03/12 07:35:55;;;;;;;9.48;6.15;;;;;;;3.80;43.98;100064.81;5017944;27;97193;-75
2021/03/12 07:38:35;;;;;;;7.75;6.88;;;;;;;3.84;43.60;100050.00;5016213;28;98895;-74
2021/03/12 07:41:12;;;;;;;6.72;6.18;;;;;;;3.85;44.08;100068.47;5002609;28;96781;-73
2021/03/12 07:43:53;;;;;;;7.43;6.82;;;;;;;3.92;44.19;100070.50;5004647;28;96797;-74
2021/03/12 07:46:31;;;;;;;7.15;6.32;;;;;;;3.97;43.83;100079.44;4982994;28;96865;-71
2021/03/12 07:49:33;;;;;;;6.95;6.25;;;;;;;4.05;45.39;100064.84;5018809;27;99824;-72
2021/03/12 07:52:10;;;;;;;7.47;6.55;;;;;;;4.15;43.53;100079.22;5034285;27;98149;-72
2021/03/12 07:54:47;;;;;;;6.60;6.00;;;;;;;4.19;44.54;100092.53;5001615;27;97920;-72
2021/03/12 07:57:39;;;;;;;7.47;6.20;;;;;;;4.22;44.88;100086.50;5001243;28;97389;-73
2021/03/12 08:00:25;;;;;;;6.47;5.88;;;;;;;4.31;43.17;100130.69;4987722;28;98942;-72
2021/03/12 08:03:27;;;;;;;6.30;5.80;;;;;;;4.35;43.69;100106.25;5000567;28;96841;-73
2021/03/12 08:06:32;;;;;;;5.90;5.35;;;;;;;4.40;43.80;100092.41;4999230;28;97341;-73
2021/03/12 08:09:31;;;;;;;5.63;5.13;;;;;;;4.40;43.92;100113.47;4998698;28;97391;-73
2021/03/12 08:12:31;;;;;;;5.57;5.03;;;;;;;4.41;43.09;100103.84;5032002;27;97737;-73
2021/03/12 08:15:13;;;;;;;6.97;5.68;;;;;;;4.43;43.46;100112.66;5017301;27;97020;-73
2021/03/12 08:18:24;;;;;;;6.18;5.70;;;;;;;4.44;44.16;100112.75;5008138;27;96922;-73
2021/03/12 08:21:36;;;;;;;6.85;6.15;;;;;;;4.43;44.15;100116.19;4995899;28;97282;-76
2021/03/12 08:24:48;;;;;;;7.40;6.50;;;;;;;4.46;43.51;100107.53;5021229;28;97990;-73
2021/03/12 08:27:43;;;;;;;8.55;6.90;;;;;;;4.59;43.10;100120.28;5015589;28;96903;-73
2021/03/12 08:30:50;;;;;;;10.23;7.38;;;;;;;4.58;43.05;100116.75;4975079;28;97105;-73
2021/03/12 08:33:47;;;;;;;7.03;6.50;;;;;;;4.60;42.93;100120.31;4962652;28;99699;-73
2021/03/12 08:36:31;;;;;;;7.20;6.50;;;;;;;4.66;42.83;100133.72;4980227;28;99766;-73
2021/03/12 08:39:27;;;;;;;13.30;7.43;;;;;;;4.73;42.88;100130.44;5000124;28;96885;-73
2021/03/12 08:42:53;;;;;;;9.57;7.70;;;;;;;4.85;42.70;100122.03;5003464;28;97637;-74
2021/03/12 08:45:52;;;;;;;9.45;7.50;;;;;;;4.89;42.29;100134.47;4982679;28;99699;-74
2021/03/12 08:48:29;;;;;;;9.18;8.02;;;;;;;4.97;42.18;100133.00;5003218;28;98474;-74
2021/03/12 08:51:02;;;;;;;9.38;7.45;;;;;;;4.99;42.37;100137.47;5022084;27;96895;-74
2021/03/12 08:53:35;;;;;;;13.38;9.25;;;;;;;5.09;42.16;100154.53;4995834;28;96792;-73
2021/03/12 08:56:04;;;;;;;9.02;8.02;;;;;;;5.18;42.05;100161.00;5019081;27;97792;-73
2021/03/12 08:58:40;;;;;;;11.82;8.70;;;;;;;5.21;42.11;100158.47;4985474;28;98446;-74
2021/03/12 09:01:28;;;;;;;15.13;9.02;;;;;;;5.29;41.87;100157.81;4983973;28;97254;-73
2021/03/12 09:04:09;;;;;;;12.35;7.85;;;;;;;5.36;42.02;100165.09;5021766;27;96655;-73
2021/03/12 09:06:37;;;;;;;11.30;8.13;;;;;;;5.42;41.87;100163.53;5036777;27;98477;-73
2021/03/12 09:09:41;;;;;;;10.18;7.95;;;;;;;5.51;41.69;100170.84;4991126;28;97904;-74
2021/03/12 09:12:11;;;;;;;11.30;8.30;;;;;;;5.56;41.40;100172.78;5001939;28;97090;-73
2021/03/12 09:14:45;;;;;;;10.70;7.95;;;;;;;5.63;41.39;100173.88;4987172;28;97369;-72
2021/03/12 09:17:18;;;;;;;8.68;7.82;;;;;;;5.66;41.40;100169.59;4983614;28;98172;-72
2021/03/12 09:19:48;;;;;;;10.02;7.97;;;;;;;5.75;40.95;100172.50;5031947;27;97314;-73
2021/03/12 09:22:25;;;;;;;8.10;7.30;;;;;;;5.77;40.92;100191.03;5003639;28;97122;-72
2021/03/12 09:24:58;;;;;;;8.75;7.90;;;;;;;5.74;40.88;100198.88;4988252;28;97015;-74
2021/03/12 09:28:01;;;;;;;7.97;7.20;;;;;;;5.75;39.86;100172.50;4996337;28;97404;-74
2021/03/12 09:30:32;;;;;;;7.60;6.93;;;;;;;5.78;40.46;100174.31;4985120;28;97167;-73
2021/03/12 09:33:27;;;;;;;12.05;7.78;;;;;;;5.80;40.19;100175.28;4993678;28;96930;-73
2021/03/12 09:36:00;;;;;;;7.45;6.75;;;;;;;5.80;40.52;100170.91;5018837;28;96782;-73
2021/03/12 09:38:35;;;;;;;8.27;7.22;;;;;;;5.85;40.21;100174.56;4984539;28;100414;-74
2021/03/12 09:41:15;;;;;;;6.78;6.18;;;;;;;5.87;38.77;100186.06;5003493;28;96914;-74
2021/03/12 09:43:44;;;;;;;8.80;5.80;;;;;;;5.91;40.31;100182.69;5020932;28;97524;-74
2021/03/12 09:46:15;;;;;;;7.30;5.43;;;;;;;5.99;40.10;100223.44;5000755;28;96899;-73
2021/03/12 09:48:59;;;;;;;7.72;6.20;;;;;;;6.02;39.91;100164.50;4983921;28;99555;-72
2021/03/12 09:51:35;;;;;;;10.20;4.97;;;;;;;6.02;39.62;100181.25;4985024;28;97049;-74
2021/03/12 09:54:04;;;;;;;7.57;5.28;;;;;;;6.03;39.50;100180.41;4986564;28;96868;-74
2021/03/12 09:56:39;;;;;;;4.97;4.55;;;;;;;6.08;39.02;100165.59;4985318;28;96913;-73
2021/03/12 09:59:09;;;;;;;8.07;5.28;;;;;;;6.19;39.32;100180.03;5020956;28;98084;-74
2021/03/12 10:01:48;;;;;;;6.93;5.10;;;;;;;6.19;39.26;100198.50;5004625;28;98894;-74
2021/03/12 10:04:37;;;;;;;5.05;4.65;;;;;;;6.22;38.71;100202.97;4986739;28;96976;-74
2021/03/12 10:07:42;;;;;;;6.30;5.78;;;;;;;6.14;37.88;100202.72;5035682;27;97392;-74
2021/03/12 10:10:18;;;;;;;7.88;5.13;;;;;;;6.19;38.69;100161.53;4984400;28;98607;-74
2021/03/12 10:12:48;;;;;;;6.80;5.85;;;;;;;6.22;38.59;100179.19;5011121;28;98559;-73
2021/03/12 10:15:33;;;;;;;5.75;5.20;;;;;;;6.21;38.54;100180.06;5015953;27;97170;-74
2021/03/12 10:18:17;;;;;;;9.18;4.85;;;;;;;6.22;38.37;100185.38;5021872;27;96869;-74
2021/03/12 10:20:44;;;;;;;6.78;6.20;;;;;;;6.22;38.43;100219.72;5016737;27;96951;-74
2021/03/12 10:23:12;;;;;;;7.38;5.18;;;;;;;6.19;38.39;100208.16;4992427;28;100043;-74
2021/03/12 10:25:43;;;;;;;5.80;5.32;;;;;;;6.24;38.17;100175.75;4990259;28;97064;-74
2021/03/12 10:28:12;;;;;;;6.93;4.85;;;;;;;6.35;38.11;100172.53;4984765;28;97055;-74
2021/03/12 10:30:40;;;;;;;7.82;5.25;;;;;;;6.40;37.75;100173.59;5007947;28;97600;-74
2021/03/12 10:33:09;;;;;;;9.60;5.47;;;;;;;6.46;37.83;100174.66;5005603;28;97294;-73
2021/03/12 10:35:40;;;;;;;7.60;5.53;;;;;;;6.55;38.02;100189.84;5009577;28;97005;-74
2021/03/12 10:38:15;;;;;;;7.65;5.18;;;;;;;6.62;37.31;100176.84;5007049;28;96836;-72
2021/03/12 10:40:44;;;;;;;5.35;4.78;;;;;;;6.67;37.52;100177.84;4999879;28;98911;-73
2021/03/12 10:43:13;;;;;;;6.25;4.85;;;;;;;6.72;37.06;100185.94;5005554;28;98123;-72
2021/03/12 10:45:45;;;;;;;6.05;4.55;;;;;;;6.77;37.12;100179.00;5016805;27;96993;-73
2021/03/12 10:48:12;;;;;;;6.80;4.53;;;;;;;6.77;37.34;100166.69;5032491;27;97378;-72
2021/03/12 10:50:59;;;;;;;5.18;4.32;;;;;;;6.81;36.75;100178.25;4970710;28;98554;-73
2021/03/12 10:53:27;;;;;;;6.63;4.65;;;;;;;6.80;36.75;100164.13;4999108;28;99768;-71
2021/03/12 10:56:02;;;;;;;4.45;3.95;;;;;;;6.90;35.80;100167.91;5003547;28;97105;-72
2021/03/12 10:58:31;;;;;;;5.38;4.40;;;;;;;6.95;36.67;100156.59;4987485;28;97264;-73
2021/03/12 11:01:22;;;;;;;4.90;3.72;;;;;;;6.94;33.80;100169.78;4999954;28;100003;-71
2021/03/12 11:03:50;;;;;;;5.82;3.95;;;;;;;7.05;36.50;100158.59;5016633;27;99182;-71
2021/03/12 11:06:19;;;;;;;4.40;3.92;;;;;;;7.11;36.55;100181.66;5018106;27;96885;-74
2021/03/12 11:08:46;;;;;;;5.15;3.47;;;;;;;7.15;36.51;100165.03;5031961;27;96970;-73
2021/03/12 11:11:18;;;;;;;3.40;3.10;;;;;;;7.10;35.13;100180.78;5038856;27;100002;-73
2021/03/12 11:13:46;;;;;;;5.18;3.60;;;;;;;7.08;36.15;100163.09;5004649;28;98321;-72
2021/03/12 11:16:13;;;;;;;4.85;3.78;;;;;;;7.08;36.16;100161.34;4997026;28;96841;-72
2021/03/12 11:18:59;;;;;;;4.80;3.45;;;;;;;7.08;36.22;100147.22;5004604;28;96825;-71
2021/03/12 11:21:28;;;;;;;3.22;3.05;;;;;;;7.13;35.82;100161.44;5033721;27;100781;-74
2021/03/12 11:23:55;;;;;;;3.13;2.80;;;;;;;7.16;35.47;100150.97;5003119;28;98762;-73
2021/03/12 11:26:24;;;;;;;5.07;3.08;;;;;;;7.24;35.74;100144.97;5001235;28;97030;-73
2021/03/12 11:28:51;;;;;;;4.80;4.43;;;;;;;7.31;35.46;100150.44;5013101;27;96820;-73
2021/03/12 11:31:19;;;;;;;3.50;3.30;;;;;;;7.33;35.75;100140.78;5000100;28;98619;-72
2021/03/12 11:33:46;;;;;;;3.50;2.97;;;;;;;7.42;35.18;100149.84;4999955;28;96862;-72
2021/03/12 11:36:14;;;;;;;3.40;3.00;;;;;;;7.49;35.13;100150.91;4997610;28;96797;-74
2021/03/12 11:38:41;;;;;;;2.97;2.88;;;;;;;7.55;35.43;100180.13;5002502;28;97049;-72
2021/03/12 11:41:08;;;;;;;3.22;2.92;;;;;;;7.61;34.83;100167.97;5015675;27;96931;-73
2021/03/12 11:43:36;;;;;;;4.38;3.30;;;;;;;7.61;34.80;100128.25;5015304;27;98786;-73
2021/03/12 11:46:04;;;;;;;3.00;2.80;;;;;;;7.72;34.61;100129.38;5000438;28;97049;-72
2021/03/12 11:48:32;;;;;;;2.67;2.58;;;;;;;7.82;34.54;100151.66;5021451;27;97258;-72
2021/03/12 11:50:59;;;;;;;4.40;3.15;;;;;;;7.90;34.48;100139.47;4980405;28;99948;-71
2021/03/12 11:53:26;;;;;;;3.70;2.72;;;;;;;7.93;34.43;100134.25;4991566;28;98354;-75
2021/03/12 11:55:53;;;;;;;5.82;3.40;;;;;;;7.95;34.27;100137.81;5000694;28;97642;-72
2021/03/12 11:58:20;;;;;;;3.47;3.20;;;;;;;7.97;34.25;100118.44;5005824;28;96886;-75
2021/03/12 12:00:49;;;;;;;3.80;3.40;;;;;;;8.06;34.05;100123.94;5020472;28;97434;-74
2021/03/12 12:03:16;;;;;;;8.93;3.00;;;;;;;8.07;34.04;100162.84;5002427;28;96981;-75
2021/03/12 12:05:45;;;;;;;4.30;2.85;;;;;;;7.99;33.81;100139.66;5005774;28;96916;-72
2021/03/12 12:08:12;;;;;;;3.67;3.42;;;;;;;7.98;33.52;100141.41;5038898;27;96866;-73
2021/03/12 12:10:41;;;;;;;3.40;3.20;;;;;;;8.03;33.90;100131.81;5001556;28;99884;-75